createdAt,value
2019-04-28T03:51:50.616Z,2728
2019-04-28T03:56:50.118Z,3211
2019-04-28T04:22:16.773Z,13188
2019-04-28T04:34:36.269Z,16717
2019-04-28T04:39:34.009Z,16717
2019-04-28T04:44:35.923Z,22443
2019-04-28T04:49:33.205Z,22443
2019-04-28T04:54:34.821Z,21120
2019-04-28T04:59:31.623Z,19907
2019-04-28T05:04:31.444Z,12804
2019-04-28T05:09:31.147Z,12007
2019-04-28T05:19:29.917Z,11105
2019-04-28T05:24:30.496Z,9818
2019-04-28T05:29:30.570Z,8552
2019-04-28T05:39:29.774Z,9508
2019-04-28T05:49:27.314Z,7827
2019-04-28T05:54:27.184Z,8874
2019-04-28T05:59:26.736Z,10108
2019-04-28T06:09:31.158Z,15032
2019-04-28T06:19:30.154Z,15047
2019-04-28T06:29:28.784Z,16289
2019-04-28T06:34:28.676Z,16926
2019-04-28T06:39:27.940Z,17827
2019-04-28T06:44:27.077Z,18539
2019-04-28T06:49:27.200Z,20028
2019-04-28T06:54:26.521Z,20219
2019-04-28T06:59:25.804Z,21186
2019-04-28T07:09:20.268Z,25142
2019-04-28T07:19:19.424Z,25632
2019-04-28T07:24:18.758Z,26856
2019-04-28T07:29:18.015Z,27624
2019-04-28T07:39:17.327Z,28641
2019-04-28T07:44:16.697Z,29680
2019-04-28T08:09:19.143Z,22329
2019-04-28T08:14:19.748Z,21841
2019-04-28T08:39:11.039Z,26628
2019-04-28T08:44:10.841Z,26766
2019-04-28T08:49:09.931Z,25549
2019-04-28T08:54:11.182Z,25196
2019-04-28T08:59:09.312Z,24169
2019-04-28T09:04:15.309Z,22932
2019-04-28T09:09:08.451Z,22491
2019-04-28T09:14:08.471Z,22819
2019-04-28T09:19:07.740Z,23125
2019-04-28T09:24:07.493Z,22944
2019-04-28T09:29:06.871Z,23172
2019-04-28T09:34:06.826Z,23528
2019-04-28T09:39:05.636Z,24022
2019-04-28T09:44:04.887Z,24189
2019-04-28T09:49:05.263Z,24123
2019-04-28T09:54:04.516Z,24145
2019-04-28T09:59:03.598Z,24553
2019-04-28T10:04:03.520Z,25914
2019-04-28T10:09:02.529Z,26546
2019-04-28T10:14:02.636Z,26932
2019-04-28T10:19:01.857Z,28010
2019-04-28T10:24:01.133Z,28308
2019-04-28T10:38:59.631Z,30235
2019-04-28T10:48:58.988Z,30626
2019-04-28T11:03:57.291Z,30285
2019-04-28T11:08:56.794Z,30599
2019-04-28T11:13:56.946Z,30947
2019-04-28T11:28:55.850Z,29914
2019-04-28T11:33:54.731Z,29500
2019-04-28T12:03:51.585Z,29273
2019-04-28T12:48:48.316Z,30069
2019-04-28T12:53:46.528Z,29963
2019-04-28T12:58:45.637Z,30273
2019-04-28T13:03:45.414Z,30325
2019-04-28T13:08:44.490Z,30319
2019-04-28T13:13:46.827Z,30238
2019-04-28T13:18:43.756Z,30237
2019-04-28T13:23:43.185Z,30434
2019-04-28T13:28:43.070Z,30396
2019-04-28T13:33:55.260Z,30323
2019-04-28T13:38:42.068Z,30614
2019-04-28T13:43:41.605Z,30856
2019-04-28T13:48:40.624Z,30920
2019-04-28T13:58:39.748Z,30628
2019-04-28T14:03:38.906Z,30717
2019-04-28T14:13:38.839Z,30665
2019-04-28T14:18:37.236Z,30354
2019-04-28T14:23:37.087Z,30120
2019-04-28T14:28:36.296Z,29774
2019-04-28T14:33:35.640Z,29704
2019-04-28T14:38:35.697Z,29315
2019-04-28T14:48:34.742Z,29016
2019-04-28T14:53:33.831Z,28655
2019-04-28T14:58:33.908Z,28000
2019-04-28T15:03:32.836Z,27374
2019-04-28T15:13:32.240Z,26737
2019-04-28T15:18:32.113Z,26478
2019-04-28T15:23:31.456Z,26176
2019-04-28T16:43:23.658Z,21138
2019-04-28T16:48:22.703Z,20589
2019-04-28T16:58:22.113Z,20214
2019-04-28T17:03:22.028Z,19833
2019-04-28T17:08:21.204Z,19366
2019-04-28T17:13:21.040Z,18917
2019-04-28T17:18:20.047Z,18255
2019-04-28T17:28:19.692Z,17163
2019-04-28T17:33:18.571Z,16530
2019-04-28T17:38:17.809Z,16278
2019-04-28T17:43:17.923Z,15608
2019-04-28T17:49:13.455Z,10954
2019-04-28T17:54:12.281Z,10061
2019-04-28T17:59:12.669Z,9399
2019-04-28T18:04:11.725Z,8552
2019-04-28T18:09:11.696Z,7236
2019-04-28T18:19:05.105Z,4737
